Time;durP1;ratioP1;P1;durP2;ratioP2;P2;SDS_P1;SDS_P2;PMS_P1;PMS_P2;Temp;Humidity;BMP_temperature;BMP_pressure;BME280_temperature;BME280_humidity;BME280_pressure;Samples;Min_cycle;Max_cycle;Signal;HPM_P1;HPM_P2
2022/01/28 00:01:13;;;;;;;23.02;10.75;;;4.40;92.50;;;;;;5020674;28;20033;-72
2022/01/28 00:03:40;;;;;;;27.25;9.40;;;4.40;92.50;;;;;;5019198;28;20664;-72
2022/01/28 00:06:07;;;;;;;21.13;10.52;;;4.30;92.70;;;;;;5017723;28;20116;-71
2022/01/28 00:08:33;;;;;;;21.70;10.60;;;4.40;92.70;;;;;;5021508;28;20045;-72
2022/01/28 00:10:59;;;;;;;24.17;9.77;;;4.30;92.70;;;;;;5017685;28;20033;-71
2022/01/28 00:13:40;;;;;;;20.88;9.15;;;4.30;92.70;;;;;;5017520;28;20030;-71
2022/01/28 00:19:11;;;;;;;20.00;9.48;;;4.20;92.70;;;;;;5019418;28;20342;-71
2022/01/28 00:38:07;;;;;;;23.75;10.20;;;3.90;93.00;;;;;;5023616;28;20040;-71
2022/01/28 00:40:33;;;;;;;21.15;9.45;;;3.90;93.00;;;;;;5028709;28;20054;-71
2022/01/28 00:43:00;;;;;;;18.08;9.70;;;3.80;93.00;;;;;;5023845;28;20037;-71
2022/01/28 00:45:26;;;;;;;20.15;9.27;;;3.80;93.00;;;;;;5006155;28;20766;-71
2022/01/28 00:47:52;;;;;;;19.02;9.18;;;3.80;93.00;;;;;;5036784;28;20366;-70
2022/01/28 00:50:17;;;;;;;22.85;10.30;;;3.80;93.10;;;;;;5029398;28;20227;-71
2022/01/28 00:52:43;;;;;;;23.92;11.07;;;3.80;93.10;;;;;;5026158;28;20492;-73
2022/01/28 00:55:09;;;;;;;20.58;11.20;;;3.80;93.10;;;;;;5021326;28;20057;-70
2022/01/28 00:57:35;;;;;;;21.20;10.07;;;3.80;93.20;;;;;;5015452;28;20520;-72
2022/01/28 01:00:01;;;;;;;21.80;9.73;;;3.80;93.10;;;;;;5025701;28;20128;-72
2022/01/28 01:02:27;;;;;;;20.70;9.07;;;3.70;93.10;;;;;;5022694;28;20046;-71
2022/01/28 01:04:53;;;;;;;16.75;7.50;;;3.70;93.10;;;;;;5019996;28;20051;-70
2022/01/28 01:07:18;;;;;;;14.27;7.32;;;3.70;93.10;;;;;;5027078;28;20040;-70
2022/01/28 01:09:45;;;;;;;25.35;8.82;;;3.60;93.10;;;;;;5012711;28;20030;-72
2022/01/28 01:12:12;;;;;;;18.33;8.70;;;3.60;93.20;;;;;;5023095;28;20065;-71
2022/01/28 01:14:39;;;;;;;18.02;7.45;;;3.60;93.20;;;;;;5023748;28;20045;-70
2022/01/28 01:19:38;;;;;;;19.67;8.05;;;3.60;93.30;;;;;;5015342;28;20033;-70
2022/01/28 01:22:05;;;;;;;23.17;8.20;;;3.60;93.30;;;;;;5019356;28;20042;-72
2022/01/28 01:24:36;;;;;;;17.73;8.55;;;3.60;93.30;;;;;;5023330;28;20040;-70
2022/01/28 01:27:03;;;;;;;17.90;7.80;;;3.60;93.40;;;;;;5021274;28;20091;-72
2022/01/28 01:29:29;;;;;;;20.67;8.48;;;3.50;93.30;;;;;;5030803;28;20029;-70
2022/01/28 01:32:03;;;;;;;19.38;8.30;;;3.40;93.30;;;;;;5026296;28;20438;-70
2022/01/28 01:34:29;;;;;;;19.13;7.90;;;3.40;93.30;;;;;;5019158;28;20050;-72
2022/01/28 01:36:54;;;;;;;15.50;7.82;;;3.40;93.30;;;;;;5025398;28;20288;-71
2022/01/28 01:39:24;;;;;;;16.42;7.43;;;3.30;93.30;;;;;;5029857;28;20057;-71
2022/01/28 01:41:59;;;;;;;15.50;6.82;;;3.40;93.40;;;;;;5022700;28;20036;-70
2022/01/28 01:45:38;;;;;;;14.45;6.70;;;3.40;93.50;;;;;;5024694;28;20057;-71
2022/01/28 01:52:53;;;;;;;17.63;7.18;;;3.40;93.50;;;;;;5021103;28;20562;-70
2022/01/28 01:55:19;;;;;;;18.58;8.27;;;3.40;93.50;;;;;;5022817;28;20358;-71
2022/01/28 01:57:45;;;;;;;17.55;6.63;;;3.40;93.50;;;;;;5025998;28;20029;-69
2022/01/28 02:00:13;;;;;;;22.73;8.60;;;3.40;93.50;;;;;;5028726;28;20440;-71
2022/01/28 02:02:39;;;;;;;14.75;7.78;;;3.40;93.50;;;;;;5023160;28;20045;-70
2022/01/28 02:05:05;;;;;;;19.88;9.27;;;3.30;93.40;;;;;;5018330;28;20042;-71
2022/01/28 02:07:31;;;;;;;22.58;10.60;;;3.30;93.50;;;;;;5012626;28;20045;-71
2022/01/28 02:09:57;;;;;;;19.20;8.68;;;3.30;93.60;;;;;;5024247;28;20034;-70
2022/01/28 02:12:23;;;;;;;15.10;7.82;;;3.30;93.70;;;;;;5016773;28;20044;-72
2022/01/28 02:14:49;;;;;;;16.98;8.82;;;3.40;93.70;;;;;;4998542;28;20073;-70
2022/01/28 02:17:15;;;;;;;18.15;8.48;;;3.30;93.70;;;;;;5023642;28;20079;-71
2022/01/28 02:19:40;;;;;;;18.42;8.25;;;3.30;93.70;;;;;;5026793;28;20461;-72
2022/01/28 02:22:07;;;;;;;19.42;9.75;;;3.20;93.60;;;;;;5023178;28;20165;-71
2022/01/28 02:24:40;;;;;;;19.45;9.25;;;3.20;93.60;;;;;;5021106;28;20457;-70
2022/01/28 02:27:06;;;;;;;18.65;9.80;;;3.20;93.60;;;;;;5019176;28;20037;-70
2022/01/28 02:29:34;;;;;;;15.60;9.40;;;3.20;93.60;;;;;;5027475;28;20036;-71
2022/01/28 02:32:03;;;;;;;16.45;9.30;;;3.10;93.60;;;;;;5024592;28;20118;-70
2022/01/28 02:34:29;;;;;;;18.63;7.97;;;3.10;93.60;;;;;;5023409;28;20480;-72
2022/01/28 02:36:55;;;;;;;20.58;9.48;;;3.00;93.60;;;;;;5023608;28;20041;-70
2022/01/28 02:39:21;;;;;;;20.75;9.73;;;3.00;93.50;;;;;;5034718;28;20496;-71
2022/01/28 02:41:51;;;;;;;19.08;9.45;;;2.90;93.50;;;;;;5017310;28;20034;-72
2022/01/28 02:44:22;;;;;;;16.45;9.02;;;2.90;93.50;;;;;;5022623;28;20468;-71
2022/01/28 02:47:31;;;;;;;16.83;9.43;;;2.80;93.50;;;;;;5025855;28;20029;-70
2022/01/28 02:49:42;;;;;;;18.98;8.98;;;2.80;93.50;;;;;;5019699;28;20029;-71
2022/01/28 02:52:17;;;;;;;13.65;8.07;;;2.80;93.50;;;;;;5022944;28;20537;-71
2022/01/28 02:54:46;;;;;;;16.88;8.63;;;2.80;93.50;;;;;;5023687;28;20041;-71
2022/01/28 02:57:12;;;;;;;19.17;9.85;;;2.70;93.50;;;;;;5017357;28;20029;-70
2022/01/28 02:59:38;;;;;;;20.27;9.70;;;2.70;93.50;;;;;;5021251;28;20505;-71
2022/01/28 03:02:03;;;;;;;17.40;9.70;;;2.60;93.50;;;;;;5016286;28;20130;-70
2022/01/28 03:04:45;;;;;;;18.30;9.27;;;2.60;93.50;;;;;;5018261;28;20041;-71
2022/01/28 03:07:11;;;;;;;21.30;9.88;;;2.60;93.50;;;;;;5020050;28;20025;-72
2022/01/28 03:10:12;;;;;;;21.15;10.70;;;2.60;93.50;;;;;;5022888;28;20037;-70
2022/01/28 03:12:57;;;;;;;20.63;9.90;;;2.50;93.50;;;;;;5017589;28;20029;-70
2022/01/28 03:15:22;;;;;;;17.83;10.02;;;2.50;93.50;;;;;;5023984;28;20042;-71
2022/01/28 03:17:55;;;;;;;17.13;9.73;;;2.50;93.50;;;;;;5021489;28;20461;-72
2022/01/28 03:22:47;;;;;;;19.50;9.30;;;2.40;93.40;;;;;;5024102;28;20149;-71
2022/01/28 03:25:15;;;;;;;17.83;9.32;;;2.40;93.40;;;;;;5017323;28;20120;-70
2022/01/28 03:27:55;;;;;;;16.63;8.52;;;2.40;93.40;;;;;;5020475;28;20029;-71
2022/01/28 03:30:21;;;;;;;21.58;9.88;;;2.30;93.40;;;;;;5024689;28;20492;-70
2022/01/28 03:32:48;;;;;;;16.73;9.02;;;2.30;93.40;;;;;;5021043;28;20033;-72
2022/01/28 03:35:15;;;;;;;21.33;10.23;;;2.30;93.40;;;;;;5021770;28;20515;-70
2022/01/28 03:37:41;;;;;;;13.82;10.02;;;2.30;93.50;;;;;;5022828;28;20120;-72
2022/01/28 03:40:08;;;;;;;18.98;9.68;;;2.30;93.50;;;;;;5027427;28;20391;-70
2022/01/28 03:42:35;;;;;;;24.35;12.68;;;2.30;93.50;;;;;;5015741;28;20029;-71
2022/01/28 03:45:01;;;;;;;20.10;12.27;;;2.30;93.40;;;;;;5018056;28;20030;-72
2022/01/28 03:47:26;;;;;;;27.55;14.85;;;2.30;93.50;;;;;;5024557;28;20040;-71
2022/01/28 03:49:52;;;;;;;24.90;14.55;;;2.30;93.50;;;;;;5009380;28;20038;-71
2022/01/28 03:52:18;;;;;;;23.75;16.25;;;2.30;93.60;;;;;;5015504;28;20096;-71
2022/01/28 03:54:44;;;;;;;23.17;15.05;;;2.30;93.60;;;;;;5015028;28;20042;-72
2022/01/28 03:57:09;;;;;;;23.33;15.80;;;2.40;93.60;;;;;;5013185;28;20100;-72
2022/01/28 03:59:35;;;;;;;24.48;16.65;;;2.30;93.60;;;;;;5019822;28;20380;-72
2022/01/28 04:02:04;;;;;;;24.27;16.63;;;2.30;93.60;;;;;;5017794;28;20037;-72
2022/01/28 04:12:26;;;;;;;27.50;16.47;;;2.40;93.80;;;;;;5020615;28;20287;-72
2022/01/28 04:17:24;;;;;;;24.05;15.75;;;2.30;93.80;;;;;;5022917;28;20033;-71
2022/01/28 04:19:51;;;;;;;28.98;17.48;;;2.30;93.80;;;;;;5021882;28;20094;-73
2022/01/28 04:22:17;;;;;;;29.33;17.65;;;2.40;93.90;;;;;;5018415;28;20114;-71
2022/01/28 04:24:43;;;;;;;29.85;18.13;;;2.40;94.00;;;;;;5018692;28;20030;-73
2022/01/28 04:27:09;;;;;;;35.22;18.27;;;2.40;94.00;;;;;;5018984;28;20033;-73
2022/01/28 04:29:34;;;;;;;24.23;16.08;;;2.50;94.10;;;;;;5033056;28;20029;-72
2022/01/28 04:32:00;;;;;;;30.80;15.85;;;2.50;94.10;;;;;;5022481;28;20120;-72
2022/01/28 04:34:26;;;;;;;34.97;18.00;;;2.50;94.10;;;;;;5019550;28;20045;-72
2022/01/28 04:37:04;;;;;;;33.42;18.08;;;2.50;94.10;;;;;;5016466;28;20418;-72
2022/01/28 04:39:43;;;;;;;29.63;16.33;;;2.60;94.20;;;;;;5021121;28;20038;-72
2022/01/28 04:42:43;;;;;;;26.13;16.60;;;2.60;94.30;;;;;;5002183;28;20501;-72
2022/01/28 04:45:19;;;;;;;33.92;18.52;;;2.60;94.30;;;;;;5022245;28;20034;-73
2022/01/28 04:47:58;;;;;;;31.63;18.02;;;2.60;94.30;;;;;;5011516;28;20044;-71
2022/01/28 04:50:43;;;;;;;31.20;18.48;;;2.60;94.40;;;;;;5002046;28;20419;-70
2022/01/28 05:04:25;;;;;;;28.30;16.25;;;2.60;94.40;;;;;;5020609;28;20037;-72
2022/01/28 05:07:19;;;;;;;29.65;16.42;;;2.60;94.40;;;;;;5016915;28;20026;-72
2022/01/28 05:25:48;;;;;;;30.05;18.08;;;2.60;94.70;;;;;;5016512;28;20121;-71
2022/01/28 05:28:17;;;;;;;30.77;17.77;;;2.60;94.70;;;;;;5014659;28;20033;-71
2022/01/28 05:30:43;;;;;;;26.83;17.05;;;2.60;94.60;;;;;;5014751;28;20038;-72
2022/01/28 05:33:09;;;;;;;27.60;16.85;;;2.60;94.60;;;;;;5008728;28;20047;-71
2022/01/28 05:35:34;;;;;;;29.13;17.25;;;2.60;94.60;;;;;;5017082;28;20046;-71
2022/01/28 05:38:00;;;;;;;25.52;16.48;;;2.60;94.70;;;;;;5019911;28;20044;-71
2022/01/28 05:40:26;;;;;;;19.10;15.27;;;2.50;94.60;;;;;;5016609;28;20037;-72
2022/01/28 05:42:51;;;;;;;28.05;17.20;;;2.50;94.60;;;;;;5013504;28;20125;-70
2022/01/28 05:45:17;;;;;;;30.95;18.38;;;2.50;94.60;;;;;;5013092;28;20049;-71
2022/01/28 05:47:43;;;;;;;29.25;18.13;;;2.40;94.60;;;;;;5017734;28;20029;-72
2022/01/28 05:50:09;;;;;;;36.90;19.85;;;2.50;94.70;;;;;;5018944;28;20067;-71
2022/01/28 05:52:34;;;;;;;32.83;19.02;;;2.50;94.80;;;;;;5018282;28;20283;-72
2022/01/28 05:55:00;;;;;;;34.80;20.33;;;2.50;94.80;;;;;;5023543;28;20034;-71
2022/01/28 05:57:26;;;;;;;32.33;18.85;;;2.60;94.90;;;;;;5014192;28;20033;-70
2022/01/28 05:59:52;;;;;;;33.58;18.90;;;2.60;94.90;;;;;;5012353;28;20034;-71
2022/01/28 06:02:18;;;;;;;27.08;19.00;;;2.60;94.80;;;;;;5008855;28;20033;-71
2022/01/28 06:04:45;;;;;;;28.38;19.15;;;2.60;94.80;;;;;;5012822;28;20045;-72
2022/01/28 06:07:11;;;;;;;30.65;21.65;;;2.60;94.80;;;;;;5013125;28;20041;-71
2022/01/28 06:09:36;;;;;;;31.08;19.33;;;2.50;94.70;;;;;;5018120;28;20429;-70
2022/01/28 06:12:02;;;;;;;33.63;20.00;;;2.50;94.70;;;;;;5010068;28;20049;-70
2022/01/28 06:14:28;;;;;;;29.73;19.27;;;2.40;94.60;;;;;;5012695;28;20720;-71
2022/01/28 06:16:53;;;;;;;28.52;19.90;;;2.30;94.60;;;;;;5014367;28;20045;-72
2022/01/28 06:19:19;;;;;;;31.55;20.60;;;2.20;94.50;;;;;;5011524;28;20061;-70
2022/01/28 06:21:45;;;;;;;31.10;20.77;;;2.20;94.50;;;;;;5004680;28;20030;-71
2022/01/28 06:24:10;;;;;;;28.92;20.85;;;2.10;94.60;;;;;;5012533;28;20083;-70
2022/01/28 06:26:36;;;;;;;28.73;18.38;;;2.10;94.60;;;;;;5015012;28;20088;-70
2022/01/28 06:29:02;;;;;;;34.85;21.58;;;2.10;94.60;;;;;;5014335;28;20545;-70
2022/01/28 06:31:28;;;;;;;33.92;21.30;;;2.10;94.60;;;;;;5029036;28;20035;-69
2022/01/28 06:33:53;;;;;;;32.13;22.42;;;2.10;94.60;;;;;;5024932;28;20645;-72
2022/01/28 06:36:21;;;;;;;30.48;20.90;;;2.10;94.60;;;;;;5009897;28;20152;-72
2022/01/28 06:38:47;;;;;;;35.47;21.92;;;2.10;94.70;;;;;;5019919;28;20042;-71
2022/01/28 06:41:13;;;;;;;35.33;21.85;;;2.10;94.70;;;;;;5023633;28;20029;-71
2022/01/28 06:43:39;;;;;;;33.00;21.83;;;2.10;94.70;;;;;;5025128;28;20041;-72
2022/01/28 06:46:04;;;;;;;43.72;26.25;;;2.10;94.70;;;;;;5005265;28;20068;-70
2022/01/28 06:48:30;;;;;;;36.45;21.85;;;2.10;94.70;;;;;;5027747;28;20029;-71
2022/01/28 06:50:56;;;;;;;33.17;22.38;;;2.10;94.80;;;;;;5011470;28;20041;-71
2022/01/28 06:53:22;;;;;;;39.20;23.85;;;2.10;94.80;;;;;;5022078;28;20476;-69
2022/01/28 06:55:47;;;;;;;37.38;25.70;;;2.10;94.80;;;;;;5017928;28;20548;-73
2022/01/28 06:58:13;;;;;;;36.10;24.83;;;2.10;94.80;;;;;;5019186;28;20057;-72
2022/01/28 07:00:40;;;;;;;38.40;24.42;;;2.10;94.80;;;;;;5011794;28;20041;-71
2022/01/28 07:03:08;;;;;;;36.78;23.35;;;2.10;94.80;;;;;;5019725;28;20045;-72
2022/01/28 07:05:37;;;;;;;36.40;22.23;;;2.10;94.80;;;;;;5008567;28;20034;-71
2022/01/28 07:08:03;;;;;;;33.47;23.48;;;2.10;94.80;;;;;;5007730;28;20040;-71
2022/01/28 07:10:30;;;;;;;39.92;24.42;;;2.10;94.80;;;;;;4994563;28;20042;-71
2022/01/28 07:12:56;;;;;;;35.05;23.88;;;2.00;94.80;;;;;;5017636;28;20376;-70
2022/01/28 07:15:25;;;;;;;39.50;24.52;;;2.10;94.80;;;;;;5016555;28;20038;-71
2022/01/28 07:18:01;;;;;;;39.80;24.92;;;2.10;94.80;;;;;;5017082;28;20033;-70
2022/01/28 07:20:29;;;;;;;42.05;25.05;;;2.10;94.80;;;;;;5016954;28;20108;-71
2022/01/28 07:22:55;;;;;;;40.03;25.98;;;2.10;94.80;;;;;;5021830;28;20029;-71
2022/01/28 07:25:20;;;;;;;41.08;25.73;;;2.10;94.80;;;;;;5018294;28;20361;-71
2022/01/28 07:27:46;;;;;;;39.75;26.48;;;2.10;94.80;;;;;;5014390;28;20037;-72
2022/01/28 07:30:13;;;;;;;40.92;26.30;;;2.10;94.80;;;;;;5021230;28;20044;-72
2022/01/28 07:32:40;;;;;;;40.05;28.58;;;2.10;94.80;;;;;;5020591;28;20028;-72
2022/01/28 07:35:06;;;;;;;37.55;26.50;;;2.10;94.80;;;;;;5023096;28;20056;-70
2022/01/28 07:37:31;;;;;;;41.42;27.58;;;2.10;94.80;;;;;;5022995;28;20053;-70
2022/01/28 07:39:57;;;;;;;40.22;26.80;;;2.10;94.80;;;;;;5016765;28;20465;-72
2022/01/28 07:42:25;;;;;;;38.83;27.23;;;2.10;94.80;;;;;;5011570;28;20042;-71
2022/01/28 07:44:51;;;;;;;41.42;28.23;;;2.10;94.80;;;;;;5013073;28;20061;-71
2022/01/28 07:47:16;;;;;;;42.97;29.58;;;2.10;94.80;;;;;;5012711;28;20136;-71
2022/01/28 07:49:42;;;;;;;40.60;27.80;;;2.10;94.80;;;;;;5016282;28;20042;-71
2022/01/28 07:52:08;;;;;;;37.80;27.63;;;2.10;94.80;;;;;;4990713;28;20048;-73
2022/01/28 07:54:33;;;;;;;40.88;29.35;;;2.10;94.90;;;;;;5016301;28;20479;-72
2022/01/28 07:57:01;;;;;;;48.65;32.60;;;2.10;94.90;;;;;;5017892;28;20405;-72
2022/01/28 07:59:26;;;;;;;52.22;37.15;;;2.20;94.90;;;;;;5020244;28;20029;-70
2022/01/28 08:01:52;;;;;;;46.20;35.10;;;2.20;94.90;;;;;;5023882;28;20375;-71
2022/01/28 08:04:17;;;;;;;47.10;35.17;;;2.30;95.00;;;;;;5018380;28;20808;-70
2022/01/28 08:06:43;;;;;;;47.83;32.78;;;2.30;95.00;;;;;;5021223;28;20476;-71
2022/01/28 08:09:09;;;;;;;52.33;35.17;;;2.40;95.00;;;;;;5027280;28;20140;-72
2022/01/28 08:11:34;;;;;;;46.78;33.95;;;2.50;95.00;;;;;;5022374;28;20036;-71
2022/01/28 08:14:02;;;;;;;50.42;35.67;;;2.50;95.00;;;;;;5019745;28;20033;-72
2022/01/28 08:16:27;;;;;;;57.55;42.15;;;2.50;95.00;;;;;;5018428;28;20292;-71
2022/01/28 08:18:53;;;;;;;50.25;38.83;;;2.60;95.00;;;;;;5021986;28;20033;-71
2022/01/28 08:21:19;;;;;;;51.92;38.15;;;2.60;95.00;;;;;;5015785;28;20086;-70
2022/01/28 08:23:44;;;;;;;46.78;35.75;;;2.70;95.00;;;;;;5012982;28;20044;-70
2022/01/28 08:26:11;;;;;;;48.65;34.85;;;2.70;95.00;;;;;;5011111;28;20033;-71
2022/01/28 08:28:41;;;;;;;49.45;35.83;;;2.80;95.00;;;;;;5009749;28;20064;-70
2022/01/28 08:31:07;;;;;;;53.00;37.30;;;2.90;95.10;;;;;;5013995;28;20088;-72
2022/01/28 08:33:33;;;;;;;47.83;35.28;;;3.00;95.00;;;;;;5018522;28;20261;-71
2022/01/28 08:35:59;;;;;;;48.35;35.53;;;3.00;95.00;;;;;;5012976;28;20045;-72
2022/01/28 08:38:26;;;;;;;50.40;36.03;;;3.00;94.90;;;;;;5008926;28;20042;-71
2022/01/28 08:40:53;;;;;;;41.50;33.22;;;3.10;94.90;;;;;;5012854;28;20126;-70
2022/01/28 08:43:19;;;;;;;46.85;33.88;;;3.10;94.90;;;;;;5011240;28;20026;-71
2022/01/28 08:45:45;;;;;;;47.97;36.78;;;3.10;94.80;;;;;;5015279;28;20030;-70
2022/01/28 08:48:11;;;;;;;50.95;35.78;;;3.20;94.80;;;;;;5007014;28;20041;-72
2022/01/28 08:50:37;;;;;;;41.30;33.00;;;3.20;94.80;;;;;;5013568;28;20029;-70
2022/01/28 08:53:02;;;;;;;49.35;36.28;;;3.30;94.70;;;;;;4992582;28;20061;-70
2022/01/28 08:55:28;;;;;;;52.63;37.58;;;3.40;94.80;;;;;;5015536;28;20465;-71
2022/01/28 08:57:54;;;;;;;47.28;33.80;;;3.50;94.70;;;;;;5016173;28;20046;-71
2022/01/28 09:00:22;;;;;;;49.55;37.55;;;3.60;94.70;;;;;;5004245;28;20045;-70
2022/01/28 09:02:48;;;;;;;48.20;35.75;;;3.70;94.70;;;;;;5021162;28;20041;-73
2022/01/28 09:05:14;;;;;;;50.63;35.50;;;3.80;94.70;;;;;;5013397;28;20042;-73
2022/01/28 09:07:40;;;;;;;53.33;37.85;;;3.90;94.70;;;;;;5023571;28;20029;-73
2022/01/28 09:10:17;;;;;;;51.92;38.42;;;4.10;94.70;;;;;;5028578;28;20087;-74
2022/01/28 09:13:11;;;;;;;52.53;38.17;;;4.20;94.60;;;;;;5012959;28;20022;-74
2022/01/28 09:15:38;;;;;;;50.08;37.33;;;4.40;94.50;;;;;;5016931;28;20041;-76
2022/01/28 09:18:04;;;;;;;68.38;42.72;;;4.50;94.30;;;;;;5012269;28;20030;-73
2022/01/28 09:20:32;;;;;;;62.53;41.38;;;4.60;94.20;;;;;;5022123;28;20053;-74
2022/01/28 09:22:59;;;;;;;56.45;39.42;;;4.80;94.00;;;;;;5020410;28;20037;-76
2022/01/28 09:25:25;;;;;;;60.28;40.95;;;4.80;93.70;;;;;;5027021;28;20056;-76
2022/01/28 09:27:51;;;;;;;60.03;40.42;;;4.90;93.60;;;;;;5017473;28;20063;-74
2022/01/28 09:30:18;;;;;;;60.10;41.08;;;5.10;93.50;;;;;;5017055;28;20100;-74
2022/01/28 09:32:43;;;;;;;59.53;41.20;;;5.20;93.30;;;;;;5025163;28;20032;-74
2022/01/28 09:35:10;;;;;;;51.63;40.03;;;5.40;93.20;;;;;;5032484;28;20041;-74
2022/01/28 09:37:35;;;;;;;57.88;41.30;;;5.50;93.10;;;;;;5020930;28;20029;-77
2022/01/28 09:40:04;;;;;;;57.70;42.05;;;5.60;93.00;;;;;;5013134;28;20022;-77
2022/01/28 09:42:34;;;;;;;54.42;38.80;;;5.70;92.90;;;;;;5010288;28;20030;-75
2022/01/28 09:45:03;;;;;;;57.25;40.20;;;5.70;91.90;;;;;;5013897;28;20914;-76
2022/01/28 09:47:30;;;;;;;63.70;41.05;;;5.90;92.10;;;;;;5015041;28;20091;-76
2022/01/28 09:49:57;;;;;;;52.08;37.38;;;5.90;91.60;;;;;;5003685;28;20038;-74
2022/01/28 09:52:22;;;;;;;61.97;37.60;;;6.00;91.60;;;;;;5015715;28;20076;-74
2022/01/28 09:54:48;;;;;;;54.60;36.92;;;6.00;91.40;;;;;;5013427;28;20045;-77
2022/01/28 09:57:19;;;;;;;57.95;37.50;;;6.10;91.30;;;;;;5016186;28;20109;-75
2022/01/28 09:59:45;;;;;;;57.40;35.78;;;6.10;91.10;;;;;;5026471;28;20037;-76
2022/01/28 10:02:10;;;;;;;56.20;37.08;;;6.20;90.70;;;;;;5014679;28;20030;-75
2022/01/28 10:04:36;;;;;;;58.20;40.38;;;6.30;90.90;;;;;;5015888;28;20059;-75
2022/01/28 10:07:12;;;;;;;69.35;39.35;;;6.50;90.50;;;;;;5018066;28;20037;-74
2022/01/28 10:10:06;;;;;;;57.60;39.05;;;6.60;90.10;;;;;;5014107;28;20038;-76
2022/01/28 10:12:40;;;;;;;61.15;40.83;;;6.60;90.00;;;;;;5011784;28;20091;-75
2022/01/28 10:15:17;;;;;;;;;;;6.60;89.40;;;;;;4998694;28;20549;-75
2022/01/28 10:17:52;;;;;;;65.53;36.85;;;6.70;89.40;;;;;;5019152;28;19948;-74
2022/01/28 10:20:17;;;;;;;;;;;6.70;89.10;;;;;;5001404;28;20040;-74
2022/01/28 10:22:55;;;;;;;63.20;37.33;;;6.70;89.00;;;;;;5025254;28;19913;-75
2022/01/28 10:25:25;;;;;;;66.30;38.58;;;6.70;88.70;;;;;;5021761;28;20774;-73
2022/01/28 10:27:58;;;;;;;62.65;38.28;;;6.80;88.40;;;;;;5014237;28;20678;-74
2022/01/28 10:30:23;;;;;;;64.00;37.30;;;6.90;88.40;;;;;;5017002;28;20087;-74
2022/01/28 10:33:15;;;;;;;59.85;37.08;;;6.80;88.20;;;;;;5027251;28;20601;-73
2022/01/28 10:35:56;;;;;;;65.22;37.03;;;6.80;88.10;;;;;;5022083;28;20037;-78
2022/01/28 10:38:29;;;;;;;62.05;37.17;;;6.70;88.20;;;;;;5014285;28;20034;-71
2022/01/28 10:41:13;;;;;;;66.43;36.45;;;6.80;88.50;;;;;;5012647;28;20036;-75
2022/01/28 10:43:58;;;;;;;57.63;35.78;;;6.70;88.10;;;;;;5016232;28;20045;-73
2022/01/28 10:46:26;;;;;;;60.85;36.70;;;6.60;88.50;;;;;;5009388;28;20524;-73
2022/01/28 10:48:58;;;;;;;65.68;37.53;;;6.60;88.50;;;;;;5024484;28;20099;-73
2022/01/28 10:51:39;;;;;;;73.90;39.58;;;6.60;88.80;;;;;;5005676;28;20037;-74
2022/01/28 10:54:10;;;;;;;69.22;40.53;;;6.60;88.90;;;;;;5013729;28;20133;-74
2022/01/28 10:57:00;;;;;;;63.13;39.28;;;6.60;88.70;;;;;;5015452;28;20531;-72
2022/01/28 10:59:32;;;;;;;69.68;40.03;;;6.60;89.10;;;;;;5013771;28;20641;-71
2022/01/28 11:01:58;;;;;;;62.45;41.28;;;6.70;89.30;;;;;;5015216;28;20033;-72
2022/01/28 11:04:24;;;;;;;74.40;41.90;;;6.70;89.30;;;;;;5015314;28;20045;-74
2022/01/28 11:06:52;;;;;;;68.03;41.63;;;6.80;89.00;;;;;;5022951;28;20373;-74
2022/01/28 11:09:20;;;;;;;72.38;41.80;;;6.70;89.00;;;;;;5015722;28;20076;-72
2022/01/28 11:11:47;;;;;;;79.07;44.22;;;6.70;89.10;;;;;;5022545;28;20065;-73
2022/01/28 11:14:12;;;;;;;80.80;42.95;;;6.70;89.30;;;;;;5034208;28;20037;-74
2022/01/28 11:16:39;;;;;;;73.47;42.38;;;6.70;89.60;;;;;;5018036;28;20123;-74
2022/01/28 11:19:08;;;;;;;70.35;41.75;;;6.70;89.80;;;;;;5015804;28;20068;-75
2022/01/28 11:22:11;;;;;;;72.57;40.92;;;6.80;89.70;;;;;;5018777;28;20021;-75
2022/01/28 11:25:04;;;;;;;74.53;44.45;;;6.90;89.90;;;;;;5023758;28;20060;-73
2022/01/28 11:27:38;;;;;;;69.03;41.90;;;7.00;89.90;;;;;;5014802;28;20217;-74
2022/01/28 11:30:25;;;;;;;71.22;41.63;;;7.00;89.60;;;;;;5015703;28;20052;-72
2022/01/28 11:33:11;;;;;;;69.38;40.72;;;7.00;89.80;;;;;;4998855;28;20867;-73
2022/01/28 11:36:00;;;;;;;70.80;40.45;;;7.10;90.20;;;;;;5017689;28;20129;-74
2022/01/28 11:38:30;;;;;;;67.05;40.92;;;7.10;90.10;;;;;;5007441;28;20042;-74
2022/01/28 11:41:05;;;;;;;69.65;41.92;;;7.20;89.80;;;;;;5005200;28;20125;-72
2022/01/28 11:43:32;;;;;;;68.30;42.03;;;7.10;89.50;;;;;;5007020;28;20034;-74
2022/01/28 11:46:37;;;;;;;72.85;43.72;;;7.10;89.70;;;;;;5004836;28;20041;-73
2022/01/28 11:49:06;;;;;;;66.97;43.40;;;7.10;90.10;;;;;;4969951;28;20041;-75
2022/01/28 11:51:38;;;;;;;73.53;45.08;;;7.10;90.00;;;;;;5002030;28;20042;-75
2022/01/28 11:54:06;;;;;;;76.07;44.33;;;7.10;90.30;;;;;;5005932;28;20483;-75
2022/01/28 11:56:32;;;;;;;79.60;47.58;;;7.10;90.20;;;;;;5006851;28;20049;-74
2022/01/28 11:59:04;;;;;;;76.45;47.35;;;7.10;90.00;;;;;;5001870;28;20045;-78
2022/01/28 12:01:36;;;;;;;78.15;46.85;;;7.10;90.50;;;;;;5003848;28;20029;-75
2022/01/28 12:04:27;;;;;;;78.25;47.05;;;7.20;90.40;;;;;;5004766;28;20095;-75
2022/01/28 12:07:00;;;;;;;86.60;46.92;;;7.10;90.20;;;;;;5000099;28;20671;-74
2022/01/28 12:09:26;;;;;;;71.93;45.33;;;7.20;90.20;;;;;;4986421;28;21445;-73
2022/01/28 12:11:53;;;;;;;94.22;52.58;;;7.20;90.30;;;;;;5000470;28;20123;-73
2022/01/28 12:14:39;;;;;;;116.03;58.88;;;7.30;90.40;;;;;;4998108;28;20037;-73
2022/01/28 12:17:34;;;;;;;121.22;63.40;;;7.30;90.50;;;;;;5003868;28;20073;-73
2022/01/28 12:20:11;;;;;;;134.15;63.33;;;7.30;90.60;;;;;;5002894;28;20132;-74
2022/01/28 12:22:59;;;;;;;118.05;59.72;;;7.40;90.50;;;;;;5002757;28;20165;-72
2022/01/28 12:25:40;;;;;;;96.43;49.80;;;7.40;90.60;;;;;;5011346;28;20360;-72
2022/01/28 12:28:18;;;;;;;99.38;47.97;;;7.30;90.60;;;;;;5006999;28;20056;-72
2022/01/28 12:30:50;;;;;;;102.68;47.63;;;7.30;90.90;;;;;;5003446;28;20138;-75
2022/01/28 12:33:21;;;;;;;100.15;48.17;;;7.40;90.90;;;;;;5003460;28;20397;-73
2022/01/28 12:35:50;;;;;;;94.70;47.58;;;7.40;91.10;;;;;;5004477;28;20130;-75
2022/01/28 12:38:21;;;;;;;119.25;56.30;;;7.60;91.30;;;;;;4998743;28;20415;-73
2022/01/28 12:40:51;;;;;;;114.65;56.63;;;7.60;91.00;;;;;;5015051;28;20029;-74
2022/01/28 12:43:21;;;;;;;116.50;57.72;;;7.70;90.80;;;;;;5013446;28;20026;-72
2022/01/28 12:46:19;;;;;;;126.55;58.35;;;7.90;90.60;;;;;;5019855;28;20044;-73
2022/01/28 12:48:55;;;;;;;111.07;53.00;;;8.00;90.40;;;;;;4964862;28;20041;-72
2022/01/28 12:51:23;;;;;;;104.85;51.63;;;8.10;90.20;;;;;;5013515;28;20040;-73
2022/01/28 12:53:54;;;;;;;113.10;55.47;;;8.10;89.90;;;;;;4994579;28;20370;-74
2022/01/28 12:56:34;;;;;;;100.90;50.88;;;8.20;89.90;;;;;;5011633;28;20071;-74
2022/01/28 12:59:02;;;;;;;98.70;50.03;;;8.40;89.70;;;;;;5004176;28;20042;-75
2022/01/28 13:01:29;;;;;;;99.38;51.90;;;8.40;88.90;;;;;;5014370;28;20066;-74
2022/01/28 13:04:14;;;;;;;104.32;51.88;;;8.50;88.80;;;;;;4999084;28;20065;-74
2022/01/28 13:09:15;;;;;;;95.50;50.05;;;8.60;88.70;;;;;;5012833;28;20030;-74
2022/01/28 13:11:48;;;;;;;83.10;47.42;;;8.70;88.90;;;;;;5018029;28;20034;-76
2022/01/28 13:14:19;;;;;;;76.28;46.42;;;8.90;88.60;;;;;;5013267;28;20030;-75
2022/01/28 13:16:46;;;;;;;72.20;44.25;;;8.90;88.10;;;;;;5022976;28;20041;-73
2022/01/28 13:19:14;;;;;;;72.57;45.45;;;8.90;87.60;;;;;;5012096;28;20034;-74
2022/01/28 13:21:42;;;;;;;65.55;43.15;;;8.90;87.50;;;;;;5011610;28;20044;-74
2022/01/28 13:24:19;;;;;;;73.10;45.47;;;8.90;87.30;;;;;;5009494;28;20033;-73
2022/01/28 13:27:02;;;;;;;78.88;49.38;;;9.00;87.40;;;;;;5013909;28;20100;-73
2022/01/28 13:29:36;;;;;;;76.65;47.75;;;9.00;87.30;;;;;;5016751;28;20480;-74
2022/01/28 13:32:08;;;;;;;75.90;48.83;;;9.10;87.10;;;;;;5014855;28;20061;-75
2022/01/28 13:34:54;;;;;;;66.45;45.85;;;9.10;87.20;;;;;;5020346;28;20042;-74
2022/01/28 13:37:41;;;;;;;70.57;45.10;;;9.10;87.10;;;;;;5020783;28;20425;-73
2022/01/28 13:40:12;;;;;;;80.25;48.28;;;9.30;87.00;;;;;;5020429;28;20435;-74
2022/01/28 13:43:11;;;;;;;68.95;45.05;;;9.20;86.80;;;;;;5018606;28;20111;-75
2022/01/28 13:45:58;;;;;;;68.90;42.33;;;9.30;87.10;;;;;;5015716;28;20532;-72
2022/01/28 13:48:33;;;;;;;64.93;41.78;;;9.40;86.40;;;;;;5015511;28;20069;-74
2022/01/28 13:51:15;;;;;;;60.00;41.75;;;9.40;86.40;;;;;;5011519;28;20042;-74
2022/01/28 13:56:46;;;;;;;59.05;37.53;;;9.50;86.30;;;;;;5015876;28;20042;-74
2022/01/28 13:59:16;;;;;;;52.80;32.30;;;9.60;86.40;;;;;;5011508;28;20044;-72
2022/01/28 14:01:50;;;;;;;40.38;25.88;;;9.60;85.90;;;;;;4996605;28;20052;-73
2022/01/28 14:04:24;;;;;;;31.70;20.60;;;9.60;84.90;;;;;;5014355;28;20036;-73
2022/01/28 14:07:07;;;;;;;26.50;18.33;;;9.60;83.40;;;;;;5020880;28;20048;-73